sensor_id;sensor_type;location;lat;lon;timestamp;pressure;altitude;pressure_sealevel;temperature;humidity
53960;BME280;39866;48.638;-2.020;2022-09-09T00:01:59;100761.34;;;20.66;62.67
53960;BME280;39866;48.638;-2.020;2022-09-09T00:04:32;100753.78;;;20.59;62.68
53960;BME280;39866;48.638;-2.020;2022-09-09T00:10:22;100757.53;;;20.69;62.52
53960;BME280;39866;48.638;-2.020;2022-09-09T00:13:13;100755.03;;;20.53;62.24
53960;BME280;39866;48.638;-2.020;2022-09-09T00:21:49;100745.44;;;20.62;62.63
53960;BME280;39866;48.638;-2.020;2022-09-09T00:27:08;100754.16;;;20.40;62.97
53960;BME280;39866;48.638;-2.020;2022-09-09T00:29:47;100762.59;;;20.48;62.85
53960;BME280;39866;48.638;-2.020;2022-09-09T00:32:18;100750.25;;;20.44;63.00
53960;BME280;39866;48.638;-2.020;2022-09-09T00:35:12;100746.91;;;20.40;63.09
53960;BME280;39866;48.638;-2.020;2022-09-09T00:37:41;100757.50;;;20.31;63.14
53960;BME280;39866;48.638;-2.020;2022-09-09T00:40:23;100756.84;;;20.27;63.48
53960;BME280;39866;48.638;-2.020;2022-09-09T00:48:37;100745.66;;;20.06;63.99
53960;BME280;39866;48.638;-2.020;2022-09-09T00:51:17;100755.50;;;20.07;63.92
53960;BME280;39866;48.638;-2.020;2022-09-09T00:54:05;100741.34;;;20.16;63.75
53960;BME280;39866;48.638;-2.020;2022-09-09T01:04:50;100758.53;;;20.15;63.68
53960;BME280;39866;48.638;-2.020;2022-09-09T01:07:18;100743.63;;;20.22;63.81
53960;BME280;39866;48.638;-2.020;2022-09-09T01:09:57;100744.03;;;20.16;63.82
53960;BME280;39866;48.638;-2.020;2022-09-09T01:15:10;100743.81;;;20.07;64.33
53960;BME280;39866;48.638;-2.020;2022-09-09T01:17:49;100745.13;;;20.14;64.04
53960;BME280;39866;48.638;-2.020;2022-09-09T01:20:36;100752.69;;;20.09;64.14
53960;BME280;39866;48.638;-2.020;2022-09-09T01:23:13;100749.69;;;20.13;64.14
53960;BME280;39866;48.638;-2.020;2022-09-09T01:28:36;100761.34;;;20.01;64.34
53960;BME280;39866;48.638;-2.020;2022-09-09T01:31:03;100751.25;;;20.03;64.07
53960;BME280;39866;48.638;-2.020;2022-09-09T01:33:29;100751.94;;;20.07;64.28
53960;BME280;39866;48.638;-2.020;2022-09-09T01:36:18;100744.47;;;19.97;64.09
53960;BME280;39866;48.638;-2.020;2022-09-09T01:38:45;100733.53;;;19.99;64.52
53960;BME280;39866;48.638;-2.020;2022-09-09T01:41:10;100749.34;;;20.05;64.47
53960;BME280;39866;48.638;-2.020;2022-09-09T01:43:35;100750.88;;;20.09;64.44
53960;BME280;39866;48.638;-2.020;2022-09-09T01:46:02;100749.00;;;19.97;64.00
53960;BME280;39866;48.638;-2.020;2022-09-09T01:48:28;100740.84;;;19.84;64.57
53960;BME280;39866;48.638;-2.020;2022-09-09T01:50:53;100753.69;;;19.81;64.74
53960;BME280;39866;48.638;-2.020;2022-09-09T01:53:20;100758.69;;;19.87;64.76
53960;BME280;39866;48.638;-2.020;2022-09-09T02:02:11;100755.53;;;19.80;65.01
53960;BME280;39866;48.638;-2.020;2022-09-09T02:04:41;100750.88;;;19.82;64.67
53960;BME280;39866;48.638;-2.020;2022-09-09T02:09:51;100759.13;;;19.93;64.45
53960;BME280;39866;48.638;-2.020;2022-09-09T02:12:21;100753.31;;;19.99;64.62
53960;BME280;39866;48.638;-2.020;2022-09-09T02:14:58;100761.72;;;19.95;64.95
53960;BME280;39866;48.638;-2.020;2022-09-09T02:17:29;100769.16;;;19.91;64.53
53960;BME280;39866;48.638;-2.020;2022-09-09T02:20:05;100767.75;;;19.86;65.02
53960;BME280;39866;48.638;-2.020;2022-09-09T02:22:33;100762.72;;;19.94;64.38
53960;BME280;39866;48.638;-2.020;2022-09-09T02:25:00;100770.16;;;19.90;64.38
53960;BME280;39866;48.638;-2.020;2022-09-09T02:27:25;100772.34;;;19.98;64.56
53960;BME280;39866;48.638;-2.020;2022-09-09T02:29:52;100763.44;;;19.96;64.50
53960;BME280;39866;48.638;-2.020;2022-09-09T02:32:22;100765.59;;;19.91;64.96
53960;BME280;39866;48.638;-2.020;2022-09-09T02:34:52;100765.59;;;19.91;64.83
53960;BME280;39866;48.638;-2.020;2022-09-09T02:37:23;100763.72;;;19.78;65.01
53960;BME280;39866;48.638;-2.020;2022-09-09T02:39:53;100763.03;;;19.89;64.60
53960;BME280;39866;48.638;-2.020;2022-09-09T02:42:19;100764.94;;;19.87;65.44
53960;BME280;39866;48.638;-2.020;2022-09-09T02:44:45;100766.34;;;19.80;65.34
53960;BME280;39866;48.638;-2.020;2022-09-09T02:52:36;100767.28;;;19.79;65.32
53960;BME280;39866;48.638;-2.020;2022-09-09T02:55:18;100771.31;;;19.86;65.27
53960;BME280;39866;48.638;-2.020;2022-09-09T02:57:47;100765.59;;;19.91;65.25
53960;BME280;39866;48.638;-2.020;2022-09-09T03:00:13;100772.69;;;19.79;65.35
53960;BME280;39866;48.638;-2.020;2022-09-09T03:02:39;100776.41;;;19.91;65.21
53960;BME280;39866;48.638;-2.020;2022-09-09T03:05:06;100780.28;;;19.87;65.03
53960;BME280;39866;48.638;-2.020;2022-09-09T03:07:31;100771.00;;;19.91;65.16
53960;BME280;39866;48.638;-2.020;2022-09-09T03:09:57;100783.53;;;19.92;65.28
53960;BME280;39866;48.638;-2.020;2022-09-09T03:12:23;100772.97;;;19.89;65.58
53960;BME280;39866;48.638;-2.020;2022-09-09T03:14:48;100774.56;;;19.91;65.30
53960;BME280;39866;48.638;-2.020;2022-09-09T03:17:14;100786.34;;;19.90;65.37
53960;BME280;39866;48.638;-2.020;2022-09-09T03:19:40;100777.59;;;19.87;65.21
53960;BME280;39866;48.638;-2.020;2022-09-09T03:22:06;100779.22;;;19.89;65.33
53960;BME280;39866;48.638;-2.020;2022-09-09T03:24:31;100789.00;;;19.77;65.55
53960;BME280;39866;48.638;-2.020;2022-09-09T03:26:56;100793.41;;;19.93;65.24
53960;BME280;39866;48.638;-2.020;2022-09-09T03:29:22;100785.28;;;19.93;65.34
53960;BME280;39866;48.638;-2.020;2022-09-09T03:31:47;100791.38;;;19.96;65.21
53960;BME280;39866;48.638;-2.020;2022-09-09T03:34:13;100782.28;;;19.97;65.10
53960;BME280;39866;48.638;-2.020;2022-09-09T03:36:39;100785.41;;;20.04;65.20
53960;BME280;39866;48.638;-2.020;2022-09-09T03:39:05;100785.22;;;20.07;65.26
53960;BME280;39866;48.638;-2.020;2022-09-09T03:41:30;100790.78;;;19.91;65.99
53960;BME280;39866;48.638;-2.020;2022-09-09T03:43:56;100791.25;;;19.71;69.09
53960;BME280;39866;48.638;-2.020;2022-09-09T03:46:23;100790.03;;;19.34;69.81
53960;BME280;39866;48.638;-2.020;2022-09-09T03:48:49;100793.16;;;19.27;70.67
53960;BME280;39866;48.638;-2.020;2022-09-09T03:51:15;100788.53;;;19.15;72.33
53960;BME280;39866;48.638;-2.020;2022-09-09T03:53:41;100789.78;;;18.95;72.13
53960;BME280;39866;48.638;-2.020;2022-09-09T03:56:07;100785.75;;;18.88;72.30
53960;BME280;39866;48.638;-2.020;2022-09-09T03:58:36;100794.22;;;19.11;72.66
53960;BME280;39866;48.638;-2.020;2022-09-09T04:01:04;100794.88;;;19.28;71.51
53960;BME280;39866;48.638;-2.020;2022-09-09T04:03:30;100795.00;;;18.98;71.03
53960;BME280;39866;48.638;-2.020;2022-09-09T04:05:58;100787.00;;;18.83;71.83
53960;BME280;39866;48.638;-2.020;2022-09-09T04:08:24;100796.25;;;18.78;71.50
53960;BME280;39866;48.638;-2.020;2022-09-09T04:10:50;100792.69;;;18.78;71.28
53960;BME280;39866;48.638;-2.020;2022-09-09T04:13:17;100796.03;;;18.81;71.15
53960;BME280;39866;48.638;-2.020;2022-09-09T04:15:50;100788.53;;;18.87;70.75
53960;BME280;39866;48.638;-2.020;2022-09-09T04:18:15;100784.47;;;18.94;70.14
53960;BME280;39866;48.638;-2.020;2022-09-09T04:20:40;100791.22;;;19.01;70.11
53960;BME280;39866;48.638;-2.020;2022-09-09T04:23:08;100805.03;;;19.11;69.60
53960;BME280;39866;48.638;-2.020;2022-09-09T04:25:33;100790.25;;;19.02;68.93
53960;BME280;39866;48.638;-2.020;2022-09-09T04:27:59;100804.31;;;19.21;68.44
53960;BME280;39866;48.638;-2.020;2022-09-09T04:30:25;100801.72;;;19.34;68.22
53960;BME280;39866;48.638;-2.020;2022-09-09T04:32:50;100815.69;;;19.41;67.89
53960;BME280;39866;48.638;-2.020;2022-09-09T04:35:16;100813.84;;;19.55;67.46
53960;BME280;39866;48.638;-2.020;2022-09-09T04:37:41;100815.84;;;19.66;67.37
53960;BME280;39866;48.638;-2.020;2022-09-09T04:40:07;100803.91;;;19.56;66.97
53960;BME280;39866;48.638;-2.020;2022-09-09T04:42:35;100817.59;;;19.67;67.22
53960;BME280;39866;48.638;-2.020;2022-09-09T04:45:01;100814.47;;;19.59;67.49
53960;BME280;39866;48.638;-2.020;2022-09-09T04:47:26;100813.94;;;19.68;66.99
53960;BME280;39866;48.638;-2.020;2022-09-09T04:49:52;100817.38;;;19.70;67.18
53960;BME280;39866;48.638;-2.020;2022-09-09T04:52:20;100809.28;;;19.70;67.55
53960;BME280;39866;48.638;-2.020;2022-09-09T04:54:45;100813.53;;;19.74;67.27
53960;BME280;39866;48.638;-2.020;2022-09-09T04:57:10;100811.22;;;19.68;67.39
53960;BME280;39866;48.638;-2.020;2022-09-09T04:59:36;100813.94;;;19.68;67.08
53960;BME280;39866;48.638;-2.020;2022-09-09T05:02:02;100825.41;;;19.72;67.46
53960;BME280;39866;48.638;-2.020;2022-09-09T05:04:28;100811.78;;;19.73;67.65
53960;BME280;39866;48.638;-2.020;2022-09-09T05:06:53;100818.91;;;19.74;67.21
53960;BME280;39866;48.638;-2.020;2022-09-09T05:09:19;100821.06;;;19.69;67.71
53960;BME280;39866;48.638;-2.020;2022-09-09T05:11:44;100818.88;;;19.62;67.56
53960;BME280;39866;48.638;-2.020;2022-09-09T05:14:09;100818.47;;;19.53;67.54
53960;BME280;39866;48.638;-2.020;2022-09-09T05:16:37;100834.28;;;19.60;67.81
53960;BME280;39866;48.638;-2.020;2022-09-09T05:19:03;100825.59;;;19.69;67.03
53960;BME280;39866;48.638;-2.020;2022-09-09T05:21:28;100828.59;;;19.64;67.45
53960;BME280;39866;48.638;-2.020;2022-09-09T05:23:56;100829.16;;;19.55;67.87
53960;BME280;39866;48.638;-2.020;2022-09-09T05:26:22;100832.63;;;19.57;67.58
53960;BME280;39866;48.638;-2.020;2022-09-09T05:28:47;100844.09;;;19.61;68.08
53960;BME280;39866;48.638;-2.020;2022-09-09T05:31:14;100834.66;;;19.53;67.64
53960;BME280;39866;48.638;-2.020;2022-09-09T05:33:42;100833.22;;;19.48;68.09
53960;BME280;39866;48.638;-2.020;2022-09-09T05:36:11;100845.34;;;19.55;68.35
53960;BME280;39866;48.638;-2.020;2022-09-09T05:38:38;100834.56;;;19.55;67.99
53960;BME280;39866;48.638;-2.020;2022-09-09T05:41:05;100837.66;;;19.49;68.39
53960;BME280;39866;48.638;-2.020;2022-09-09T05:43:31;100845.16;;;19.58;68.11
53960;BME280;39866;48.638;-2.020;2022-09-09T05:46:09;100841.34;;;19.62;68.26
53960;BME280;39866;48.638;-2.020;2022-09-09T05:48:37;100846.34;;;19.68;67.74
53960;BME280;39866;48.638;-2.020;2022-09-09T05:51:04;100843.16;;;19.62;67.78
53960;BME280;39866;48.638;-2.020;2022-09-09T05:53:30;100840.34;;;19.63;67.92
53960;BME280;39866;48.638;-2.020;2022-09-09T05:56:14;100840.34;;;19.63;67.83
53960;BME280;39866;48.638;-2.020;2022-09-09T05:58:41;100833.59;;;19.56;67.94
53960;BME280;39866;48.638;-2.020;2022-09-09T06:01:15;100841.25;;;19.64;67.61
53960;BME280;39866;48.638;-2.020;2022-09-09T06:03:42;100850.66;;;19.71;67.47
53960;BME280;39866;48.638;-2.020;2022-09-09T06:06:10;100850.88;;;19.68;67.41
53960;BME280;39866;48.638;-2.020;2022-09-09T06:08:38;100851.84;;;19.67;67.66
53960;BME280;39866;48.638;-2.020;2022-09-09T06:11:12;100848.47;;;19.63;67.93
53960;BME280;39866;48.638;-2.020;2022-09-09T06:13:38;100847.84;;;19.58;67.42
53960;BME280;39866;48.638;-2.020;2022-09-09T06:16:15;100862.75;;;19.65;67.46
53960;BME280;39866;48.638;-2.020;2022-09-09T06:18:41;100865.03;;;19.57;67.58
53960;BME280;39866;48.638;-2.020;2022-09-09T06:21:13;100873.56;;;19.65;67.86
53960;BME280;39866;48.638;-2.020;2022-09-09T06:23:39;100868.22;;;19.78;67.05
53960;BME280;39866;48.638;-2.020;2022-09-09T06:26:17;100867.34;;;19.77;67.23
53960;BME280;39866;48.638;-2.020;2022-09-09T06:28:43;100870.16;;;19.76;67.08
53960;BME280;39866;48.638;-2.020;2022-09-09T06:31:11;100874.84;;;19.87;67.06
53960;BME280;39866;48.638;-2.020;2022-09-09T06:33:39;100869.94;;;19.79;67.19
53960;BME280;39866;48.638;-2.020;2022-09-09T06:36:12;100880.44;;;19.84;67.29
53960;BME280;39866;48.638;-2.020;2022-09-09T06:38:39;100883.56;;;19.77;67.25
53960;BME280;39866;48.638;-2.020;2022-09-09T06:41:05;100881.53;;;19.81;66.98
53960;BME280;39866;48.638;-2.020;2022-09-09T06:43:31;100888.66;;;19.82;67.36
53960;BME280;39866;48.638;-2.020;2022-09-09T06:46:02;100884.41;;;19.92;66.91
53960;BME280;39866;48.638;-2.020;2022-09-09T06:48:28;100901.56;;;19.91;67.05
53960;BME280;39866;48.638;-2.020;2022-09-09T06:51:06;100892.97;;;19.99;66.74
53960;BME280;39866;48.638;-2.020;2022-09-09T06:53:33;100894.91;;;19.97;66.73
53960;BME280;39866;48.638;-2.020;2022-09-09T06:56:00;100905.13;;;19.92;66.40
53960;BME280;39866;48.638;-2.020;2022-09-09T06:58:27;100909.19;;;19.99;66.53
53960;BME280;39866;48.638;-2.020;2022-09-09T07:00:53;100903.03;;;19.97;66.21
53960;BME280;39866;48.638;-2.020;2022-09-09T07:03:18;100899.78;;;19.77;66.72
53960;BME280;39866;48.638;-2.020;2022-09-09T07:05:43;100910.94;;;19.86;65.98
53960;BME280;39866;48.638;-2.020;2022-09-09T07:08:18;100921.34;;;19.92;66.24
53960;BME280;39866;48.638;-2.020;2022-09-09T07:10:43;100915.75;;;19.95;65.88
53960;BME280;39866;48.638;-2.020;2022-09-09T07:13:09;100910.63;;;20.04;65.99
53960;BME280;39866;48.638;-2.020;2022-09-09T07:15:34;100912.84;;;19.98;65.88
53960;BME280;39866;48.638;-2.020;2022-09-09T07:18:03;100910.16;;;19.98;66.31
53960;BME280;39866;48.638;-2.020;2022-09-09T07:20:28;100921.94;;;19.97;66.09
53960;BME280;39866;48.638;-2.020;2022-09-09T07:22:55;100921.94;;;19.97;66.34
53960;BME280;39866;48.638;-2.020;2022-09-09T07:25:21;100925.63;;;19.82;66.33
53960;BME280;39866;48.638;-2.020;2022-09-09T07:27:47;100929.81;;;20.00;66.17
53960;BME280;39866;48.638;-2.020;2022-09-09T07:30:12;100937.78;;;19.89;66.25
53960;BME280;39866;48.638;-2.020;2022-09-09T07:32:37;100933.31;;;20.02;66.33
53960;BME280;39866;48.638;-2.020;2022-09-09T07:35:03;100926.72;;;20.06;66.05
53960;BME280;39866;48.638;-2.020;2022-09-09T07:37:28;100927.59;;;20.07;66.10
53960;BME280;39866;48.638;-2.020;2022-09-09T07:39:54;100954.38;;;19.97;65.97
53960;BME280;39866;48.638;-2.020;2022-09-09T07:42:19;100937.78;;;19.89;66.14
53960;BME280;39866;48.638;-2.020;2022-09-09T07:44:45;100944.13;;;20.02;66.34
53960;BME280;39866;48.638;-2.020;2022-09-09T07:47:10;100940.34;;;20.04;66.34
53960;BME280;39866;48.638;-2.020;2022-09-09T07:49:35;100937.03;;;20.14;65.59
53960;BME280;39866;48.638;-2.020;2022-09-09T07:52:01;100946.69;;;20.18;65.40
53960;BME280;39866;48.638;-2.020;2022-09-09T07:54:27;100957.31;;;20.21;65.27
53960;BME280;39866;48.638;-2.020;2022-09-09T07:56:52;100946.06;;;20.27;65.41
53960;BME280;39866;48.638;-2.020;2022-09-09T07:59:18;100950.69;;;20.39;65.20
53960;BME280;39866;48.638;-2.020;2022-09-09T08:01:47;100979.94;;;20.33;64.30
53960;BME280;39866;48.638;-2.020;2022-09-09T08:04:15;100955.41;;;20.36;64.76
53960;BME280;39866;48.638;-2.020;2022-09-09T08:06:49;100954.00;;;20.30;65.07
53960;BME280;39866;48.638;-2.020;2022-09-09T08:09:16;100925.50;;;20.24;64.64
53960;BME280;39866;48.638;-2.020;2022-09-09T08:11:42;100948.16;;;20.50;64.47
53960;BME280;39866;48.638;-2.020;2022-09-09T08:14:09;100948.44;;;20.46;64.67
53960;BME280;39866;48.638;-2.020;2022-09-09T08:16:38;100966.50;;;20.45;64.43
53960;BME280;39866;48.638;-2.020;2022-09-09T08:19:04;100956.16;;;20.52;64.21
53960;BME280;39866;48.638;-2.020;2022-09-09T08:21:33;100955.03;;;20.42;63.88
53960;BME280;39866;48.638;-2.020;2022-09-09T08:24:00;100953.38;;;20.39;64.18
53960;BME280;39866;48.638;-2.020;2022-09-09T08:26:35;100968.31;;;20.45;63.79
53960;BME280;39866;48.638;-2.020;2022-09-09T08:29:01;100954.78;;;20.45;63.86
53960;BME280;39866;48.638;-2.020;2022-09-09T08:31:30;100983.78;;;20.43;63.20
53960;BME280;39866;48.638;-2.020;2022-09-09T08:33:57;100958.25;;;20.61;63.55
53960;BME280;39866;48.638;-2.020;2022-09-09T08:36:25;100974.44;;;20.75;63.37
53960;BME280;39866;48.638;-2.020;2022-09-09T08:38:53;100972.94;;;20.84;63.02
53960;BME280;39866;48.638;-2.020;2022-09-09T08:46:46;100979.13;;;20.59;62.89
53960;BME280;39866;48.638;-2.020;2022-09-09T08:51:53;101000.41;;;20.78;61.97
53960;BME280;39866;48.638;-2.020;2022-09-09T08:54:21;101020.81;;;20.69;62.59
53960;BME280;39866;48.638;-2.020;2022-09-09T08:56:47;100989.16;;;20.84;62.50
53960;BME280;39866;48.638;-2.020;2022-09-09T08:59:17;100986.16;;;20.89;62.91
53960;BME280;39866;48.638;-2.020;2022-09-09T09:02:15;100998.50;;;20.93;62.26
53960;BME280;39866;48.638;-2.020;2022-09-09T09:04:58;100992.34;;;20.91;62.11
53960;BME280;39866;48.638;-2.020;2022-09-09T09:07:42;101024.31;;;20.98;62.41
53960;BME280;39866;48.638;-2.020;2022-09-09T09:12:55;101013.22;;;20.89;62.49
53960;BME280;39866;48.638;-2.020;2022-09-09T09:15:24;101019.22;;;21.07;62.17
53960;BME280;39866;48.638;-2.020;2022-09-09T09:17:50;101017.72;;;21.15;61.90
53960;BME280;39866;48.638;-2.020;2022-09-09T09:20:16;101014.38;;;21.12;61.47
53960;BME280;39866;48.638;-2.020;2022-09-09T09:22:49;101024.66;;;21.07;61.30
53960;BME280;39866;48.638;-2.020;2022-09-09T09:25:41;101026.47;;;21.06;61.15
53960;BME280;39866;48.638;-2.020;2022-09-09T09:28:24;101035.03;;;21.13;61.37
53960;BME280;39866;48.638;-2.020;2022-09-09T09:30:51;101026.47;;;21.06;61.48
53960;BME280;39866;48.638;-2.020;2022-09-09T09:35:45;101038.91;;;20.96;61.97
53960;BME280;39866;48.638;-2.020;2022-09-09T09:38:37;101065.06;;;20.68;62.42
53960;BME280;39866;48.638;-2.020;2022-09-09T09:41:02;101048.84;;;20.68;61.92
53960;BME280;39866;48.638;-2.020;2022-09-09T09:43:30;101059.53;;;20.84;61.72
53960;BME280;39866;48.638;-2.020;2022-09-09T09:45:56;101034.09;;;20.87;61.49
53960;BME280;39866;48.638;-2.020;2022-09-09T09:48:26;101047.88;;;20.96;61.79
53960;BME280;39866;48.638;-2.020;2022-09-09T09:50:54;101039.09;;;20.93;61.54
53960;BME280;39866;48.638;-2.020;2022-09-09T09:53:25;101057.19;;;20.92;61.96
53960;BME280;39866;48.638;-2.020;2022-09-09T09:56:12;101052.94;;;20.88;62.49
53960;BME280;39866;48.638;-2.020;2022-09-09T10:01:23;101073.06;;;21.11;61.30
53960;BME280;39866;48.638;-2.020;2022-09-09T10:04:16;101066.97;;;21.08;61.98
53960;BME280;39866;48.638;-2.020;2022-09-09T10:06:44;101071.19;;;20.99;60.97
53960;BME280;39866;48.638;-2.020;2022-09-09T10:09:25;101077.97;;;20.92;60.83
53960;BME280;39866;48.638;-2.020;2022-09-09T10:17:34;101079.38;;;20.97;61.61
53960;BME280;39866;48.638;-2.020;2022-09-09T10:23:26;101073.72;;;21.15;60.85
53960;BME280;39866;48.638;-2.020;2022-09-09T10:26:03;101102.06;;;21.09;60.96
53960;BME280;39866;48.638;-2.020;2022-09-09T10:31:31;101083.09;;;21.09;60.84
53960;BME280;39866;48.638;-2.020;2022-09-09T10:34:12;101079.25;;;21.26;61.23
53960;BME280;39866;48.638;-2.020;2022-09-09T10:36:47;101091.50;;;21.19;62.09
53960;BME280;39866;48.638;-2.020;2022-09-09T10:42:09;101096.28;;;21.28;61.15
53960;BME280;39866;48.638;-2.020;2022-09-09T10:47:55;101102.34;;;21.32;61.21
53960;BME280;39866;48.638;-2.020;2022-09-09T10:56:09;101120.63;;;21.55;60.06
53960;BME280;39866;48.638;-2.020;2022-09-09T10:58:47;101135.16;;;21.27;61.92
53960;BME280;39866;48.638;-2.020;2022-09-09T11:01:18;101106.75;;;21.20;62.09
53960;BME280;39866;48.638;-2.020;2022-09-09T11:03:51;101111.25;;;21.34;60.79
53960;BME280;39866;48.638;-2.020;2022-09-09T11:06:19;101117.22;;;21.39;60.58
53960;BME280;39866;48.638;-2.020;2022-09-09T11:08:46;101128.06;;;21.39;60.26
53960;BME280;39866;48.638;-2.020;2022-09-09T11:11:19;101126.69;;;21.46;60.38
53960;BME280;39866;48.638;-2.020;2022-09-09T11:19:34;101120.44;;;21.71;61.69
53960;BME280;39866;48.638;-2.020;2022-09-09T11:22:22;101127.69;;;21.58;60.40
53960;BME280;39866;48.638;-2.020;2022-09-09T11:24:58;101115.22;;;21.55;59.75
53960;BME280;39866;48.638;-2.020;2022-09-09T11:27:33;101117.81;;;21.44;60.65
53960;BME280;39866;48.638;-2.020;2022-09-09T11:40:45;101125.00;;;21.70;59.04
53960;BME280;39866;48.638;-2.020;2022-09-09T11:43:14;101129.16;;;21.76;60.55
53960;BME280;39866;48.638;-2.020;2022-09-09T11:45:41;101128.22;;;21.63;61.21
53960;BME280;39866;48.638;-2.020;2022-09-09T11:48:23;101120.53;;;21.57;59.64
53960;BME280;39866;48.638;-2.020;2022-09-09T11:51:24;101123.72;;;21.76;58.75
53960;BME280;39866;48.638;-2.020;2022-09-09T11:56:42;101124.13;;;21.57;60.55
53960;BME280;39866;48.638;-2.020;2022-09-09T11:59:31;101140.69;;;21.52;60.62
53960;BME280;39866;48.638;-2.020;2022-09-09T12:02:18;101124.56;;;21.64;60.88
53960;BME280;39866;48.638;-2.020;2022-09-09T12:12:22;101142.28;;;21.42;60.55
53960;BME280;39866;48.638;-2.020;2022-09-09T12:17:42;101145.69;;;21.59;60.53
53960;BME280;39866;48.638;-2.020;2022-09-09T12:37:02;101153.41;;;21.65;61.26
53960;BME280;39866;48.638;-2.020;2022-09-09T12:39:40;101144.75;;;21.72;61.70
53960;BME280;39866;48.638;-2.020;2022-09-09T12:42:18;101151.00;;;21.60;61.68
53960;BME280;39866;48.638;-2.020;2022-09-09T12:45:00;101146.19;;;21.51;61.85
53960;BME280;39866;48.638;-2.020;2022-09-09T12:47:32;101149.72;;;21.66;61.86
53960;BME280;39866;48.638;-2.020;2022-09-09T12:50:02;101181.13;;;21.56;61.64
53960;BME280;39866;48.638;-2.020;2022-09-09T12:52:31;101159.59;;;21.80;61.59
53960;BME280;39866;48.638;-2.020;2022-09-09T12:55:00;101165.44;;;21.73;61.40
53960;BME280;39866;48.638;-2.020;2022-09-09T12:57:33;101156.66;;;21.70;60.58
53960;BME280;39866;48.638;-2.020;2022-09-09T13:00:11;101142.44;;;21.66;60.19
53960;BME280;39866;48.638;-2.020;2022-09-09T13:02:46;101164.25;;;21.65;60.76
53960;BME280;39866;48.638;-2.020;2022-09-09T13:05:21;101146.88;;;21.67;61.11
53960;BME280;39866;48.638;-2.020;2022-09-09T13:07:47;101139.00;;;21.90;61.02
53960;BME280;39866;48.638;-2.020;2022-09-09T13:10:15;101141.28;;;21.96;60.85
53960;BME280;39866;48.638;-2.020;2022-09-09T13:12:42;101155.81;;;21.95;61.11
53960;BME280;39866;48.638;-2.020;2022-09-09T13:15:19;101154.31;;;22.04;61.32
53960;BME280;39866;48.638;-2.020;2022-09-09T13:17:51;101150.19;;;21.98;61.93
53960;BME280;39866;48.638;-2.020;2022-09-09T13:20:19;101149.13;;;22.00;61.04
53960;BME280;39866;48.638;-2.020;2022-09-09T13:22:47;101147.69;;;22.08;61.25
53960;BME280;39866;48.638;-2.020;2022-09-09T13:25:26;101153.59;;;22.14;59.30
53960;BME280;39866;48.638;-2.020;2022-09-09T13:27:58;101165.59;;;21.97;58.95
53960;BME280;39866;48.638;-2.020;2022-09-09T13:30:29;101164.94;;;21.94;60.21
53960;BME280;39866;48.638;-2.020;2022-09-09T13:36:09;101181.53;;;22.02;60.19
53960;BME280;39866;48.638;-2.020;2022-09-09T13:38:56;101162.34;;;22.05;59.87
53960;BME280;39866;48.638;-2.020;2022-09-09T13:41:29;101186.13;;;22.14;59.48
53960;BME280;39866;48.638;-2.020;2022-09-09T13:43:56;101152.06;;;22.23;60.33
53960;BME280;39866;48.638;-2.020;2022-09-09T13:46:35;101171.16;;;22.34;59.76
53960;BME280;39866;48.638;-2.020;2022-09-09T13:51:45;101164.22;;;22.17;60.39
53960;BME280;39866;48.638;-2.020;2022-09-09T13:54:13;101169.97;;;22.25;60.10
53960;BME280;39866;48.638;-2.020;2022-09-09T13:56:39;101153.88;;;22.48;59.63
53960;BME280;39866;48.638;-2.020;2022-09-09T13:59:09;101162.03;;;22.35;59.40
53960;BME280;39866;48.638;-2.020;2022-09-09T14:01:35;101163.84;;;22.60;59.32
53960;BME280;39866;48.638;-2.020;2022-09-09T14:04:03;101159.34;;;22.85;58.85
53960;BME280;39866;48.638;-2.020;2022-09-09T14:06:29;101151.44;;;22.94;58.53
53960;BME280;39866;48.638;-2.020;2022-09-09T14:08:54;101179.38;;;23.20;56.63
53960;BME280;39866;48.638;-2.020;2022-09-09T14:11:20;101172.41;;;23.64;55.95
53960;BME280;39866;48.638;-2.020;2022-09-09T14:13:47;101172.28;;;23.90;55.18
53960;BME280;39866;48.638;-2.020;2022-09-09T14:16:12;101174.59;;;24.30;55.67
53960;BME280;39866;48.638;-2.020;2022-09-09T14:18:37;101173.97;;;24.26;53.67
53960;BME280;39866;48.638;-2.020;2022-09-09T14:21:04;101175.00;;;24.59;54.00
53960;BME280;39866;48.638;-2.020;2022-09-09T14:23:29;101165.47;;;24.53;53.04
53960;BME280;39866;48.638;-2.020;2022-09-09T14:25:55;101183.75;;;24.74;53.25
53960;BME280;39866;48.638;-2.020;2022-09-09T14:28:20;101177.47;;;24.84;52.28
53960;BME280;39866;48.638;-2.020;2022-09-09T14:30:46;101178.31;;;24.96;52.06
53960;BME280;39866;48.638;-2.020;2022-09-09T14:33:14;101180.53;;;25.13;52.09
53960;BME280;39866;48.638;-2.020;2022-09-09T14:35:40;101179.41;;;25.16;51.58
53960;BME280;39866;48.638;-2.020;2022-09-09T14:38:07;101181.41;;;24.91;51.21
53960;BME280;39866;48.638;-2.020;2022-09-09T14:40:34;101178.28;;;25.18;50.79
53960;BME280;39866;48.638;-2.020;2022-09-09T14:42:59;101187.97;;;25.11;51.62
53960;BME280;39866;48.638;-2.020;2022-09-09T14:45:25;101192.56;;;25.11;51.81
53960;BME280;39866;48.638;-2.020;2022-09-09T14:47:51;101204.03;;;25.14;50.89
53960;BME280;39866;48.638;-2.020;2022-09-09T14:50:18;101195.03;;;25.03;50.67
53960;BME280;39866;48.638;-2.020;2022-09-09T14:52:44;101182.41;;;24.79;50.29
53960;BME280;39866;48.638;-2.020;2022-09-09T14:55:10;101208.75;;;25.01;50.25
53960;BME280;39866;48.638;-2.020;2022-09-09T14:57:36;101187.97;;;24.89;51.68
53960;BME280;39866;48.638;-2.020;2022-09-09T15:00:05;101205.31;;;24.77;51.11
53960;BME280;39866;48.638;-2.020;2022-09-09T15:02:31;101199.34;;;24.94;51.52
53960;BME280;39866;48.638;-2.020;2022-09-09T15:04:56;101187.81;;;25.02;51.76
53960;BME280;39866;48.638;-2.020;2022-09-09T15:07:23;101193.88;;;25.05;51.20
53960;BME280;39866;48.638;-2.020;2022-09-09T15:09:48;101195.13;;;25.01;51.43
53960;BME280;39866;48.638;-2.020;2022-09-09T15:12:14;101194.28;;;25.23;50.72